Time;durP1;ratioP1;P1;durP2;ratioP2;P2;SDS_P1;SDS_P2;PMS_P1;PMS_P2;Temp;Humidity;BMP_temperature;BMP_pressure;BME280_temperature;BME280_humidity;BME280_pressure;Samples;Min_cycle;Max_cycle;Signal;HPM_P1;HPM_P2
2022/10/19 01:04:00;;;;;;;1.0;1.0;;;;;;;10.4;100.0;102660;;;;
2022/10/19 01:05:00;;;;;;;1.0;1.0;;;;;;;9.8;100.0;102670;;;;
2022/10/19 01:06:00;;;;;;;1.0;1.0;;;;;;;9.8;100.0;102670;;;;
2022/10/19 01:07:02;;;;;;;1.0;1.0;;;;;;;9.6;100.0;102660;;;;
2022/10/19 01:08:00;;;;;;;1.0;1.0;;;;;;;9.6;100.0;102660;;;;
2022/10/19 01:09:00;;;;;;;1.0;1.0;;;;;;;9.5;100.0;102660;;;;
2022/10/19 01:10:00;;;;;;;1.0;1.0;;;;;;;9.5;100.0;102660;;;;
2022/10/19 01:11:10;;;;;;;1.0;1.0;;;;;;;9.4;100.0;102650;;;;
2022/10/19 01:12:00;;;;;;;1.0;1.0;;;;;;;9.4;100.0;102650;;;;
2022/10/19 01:13:09;;;;;;;1.0;1.0;;;;;;;9.4;100.0;102650;;;;
2022/10/19 01:14:13;;;;;;;1.0;1.0;;;;;;;9.4;100.0;102650;;;;
2022/10/19 01:15:10;;;;;;;1.0;1.0;;;;;;;9.4;100.0;102650;;;;
2022/10/19 01:16:04;;;;;;;1.0;1.0;;;;;;;9.4;100.0;102650;;;;
2022/10/19 01:17:10;;;;;;;1.0;1.0;;;;;;;9.5;100.0;102650;;;;
2022/10/19 01:18:01;;;;;;;1.0;1.0;;;;;;;9.5;100.0;102650;;;;
2022/10/19 01:19:10;;;;;;;1.1;1.1;;;;;;;9.5;100.0;102650;;;;
2022/10/19 01:20:00;;;;;;;1.1;1.1;;;;;;;9.5;100.0;102650;;;;
2022/10/19 01:21:10;;;;;;;1.1;1.1;;;;;;;9.5;100.0;102650;;;;
2022/10/19 01:22:00;;;;;;;1.1;1.1;;;;;;;9.5;100.0;102650;;;;
2022/10/19 01:23:00;;;;;;;1.1;1.1;;;;;;;9.4;100.0;102650;;;;
2022/10/19 01:24:10;;;;;;;1.1;1.1;;;;;;;9.4;100.0;102650;;;;
2022/10/19 01:25:01;;;;;;;1.1;1.1;;;;;;;9.4;100.0;102650;;;;
2022/10/19 01:26:00;;;;;;;1.1;1.1;;;;;;;9.4;100.0;102650;;;;
2022/10/19 01:27:10;;;;;;;1.1;1.1;;;;;;;9.5;100.0;102650;;;;
2022/10/19 01:28:10;;;;;;;1.1;1.1;;;;;;;9.5;100.0;102650;;;;
2022/10/19 01:29:07;;;;;;;1.1;1.1;;;;;;;9.4;100.0;102650;;;;
2022/10/19 01:30:10;;;;;;;1.1;1.1;;;;;;;9.4;100.0;102650;;;;
2022/10/19 01:31:04;;;;;;;1.1;1.1;;;;;;;9.4;100.0;102640;;;;
2022/10/19 01:32:04;;;;;;;1.1;1.1;;;;;;;9.4;100.0;102640;;;;
2022/10/19 01:33:06;;;;;;;1.1;1.1;;;;;;;9.4;100.0;102640;;;;
2022/10/19 01:34:10;;;;;;;1.1;1.1;;;;;;;9.4;100.0;102640;;;;
2022/10/19 01:35:01;;;;;;;1.1;1.1;;;;;;;9.4;100.0;102640;;;;
2022/10/19 01:36:00;;;;;;;1.1;1.1;;;;;;;9.4;100.0;102640;;;;
2022/10/19 01:37:10;;;;;;;1.1;1.1;;;;;;;9.4;100.0;102640;;;;
2022/10/19 01:38:06;;;;;;;1.1;1.1;;;;;;;9.4;100.0;102640;;;;
2022/10/19 01:39:05;;;;;;;0.8;0.8;;;;;;;9.4;100.0;102640;;;;
2022/10/19 01:40:05;;;;;;;0.8;0.8;;;;;;;9.4;100.0;102640;;;;
2022/10/19 01:41:00;;;;;;;0.8;0.8;;;;;;;9.3;100.0;102640;;;;
2022/10/19 01:42:10;;;;;;;0.8;0.8;;;;;;;9.3;100.0;102640;;;;
2022/10/19 01:43:03;;;;;;;0.8;0.8;;;;;;;9.2;100.0;102640;;;;
2022/10/19 01:44:10;;;;;;;0.8;0.8;;;;;;;9.2;100.0;102640;;;;
2022/10/19 01:45:00;;;;;;;0.8;0.8;;;;;;;9.2;100.0;102630;;;;
2022/10/19 01:46:05;;;;;;;0.8;0.8;;;;;;;9.2;100.0;102630;;;;
2022/10/19 01:47:10;;;;;;;0.8;0.8;;;;;;;9.3;100.0;102630;;;;
2022/10/19 01:48:02;;;;;;;0.8;0.8;;;;;;;9.3;100.0;102630;;;;
2022/10/19 01:49:03;;;;;;;0.8;0.8;;;;;;;9.3;100.0;102630;;;;
2022/10/19 01:50:04;;;;;;;0.8;0.8;;;;;;;9.3;100.0;102630;;;;
2022/10/19 01:51:04;;;;;;;0.8;0.8;;;;;;;9.2;100.0;102630;;;;
2022/10/19 01:52:03;;;;;;;0.8;0.8;;;;;;;9.2;100.0;102630;;;;
2022/10/19 01:53:03;;;;;;;0.8;0.8;;;;;;;9.1;100.0;102630;;;;
2022/10/19 01:54:03;;;;;;;0.8;0.8;;;;;;;9.1;100.0;102630;;;;
2022/10/19 01:55:01;;;;;;;0.8;0.8;;;;;;;9.0;100.0;102640;;;;
2022/10/19 01:56:01;;;;;;;0.8;0.8;;;;;;;9.0;100.0;102640;;;;
2022/10/19 01:57:01;;;;;;;0.8;0.8;;;;;;;9.1;100.0;102640;;;;
2022/10/19 01:58:09;;;;;;;0.8;0.8;;;;;;;9.1;100.0;102640;;;;
2022/10/19 01:59:02;;;;;;;1.0;1.0;;;;;;;9.3;100.0;102640;;;;
2022/10/19 02:00:06;;;;;;;1.0;1.0;;;;;;;9.3;100.0;102640;;;;
2022/10/19 02:01:02;;;;;;;1.0;1.0;;;;;;;9.4;100.0;102630;;;;
2022/10/19 02:02:01;;;;;;;1.0;1.0;;;;;;;9.4;100.0;102630;;;;
2022/10/19 02:03:01;;;;;;;1.0;1.0;;;;;;;9.3;100.0;102630;;;;
2022/10/19 02:04:01;;;;;;;1.0;1.0;;;;;;;9.3;100.0;102630;;;;
2022/10/19 02:05:01;;;;;;;1.0;1.0;;;;;;;9.3;100.0;102630;;;;
2022/10/19 02:06:02;;;;;;;1.0;1.0;;;;;;;9.3;100.0;102630;;;;
2022/10/19 02:07:00;;;;;;;1.0;1.0;;;;;;;9.3;100.0;102630;;;;
2022/10/19 02:08:02;;;;;;;1.0;1.0;;;;;;;9.3;100.0;102630;;;;
2022/10/19 02:09:00;;;;;;;1.0;1.0;;;;;;;9.2;100.0;102630;;;;
2022/10/19 02:10:00;;;;;;;1.0;1.0;;;;;;;9.2;100.0;102630;;;;
2022/10/19 02:11:00;;;;;;;1.0;1.0;;;;;;;9.2;100.0;102630;;;;
2022/10/19 02:12:02;;;;;;;1.0;1.0;;;;;;;9.2;100.0;102630;;;;
2022/10/19 02:13:01;;;;;;;1.0;1.0;;;;;;;9.1;100.0;102630;;;;
2022/10/19 02:14:03;;;;;;;1.0;1.0;;;;;;;9.1;100.0;102630;;;;
2022/10/19 02:15:02;;;;;;;1.0;1.0;;;;;;;9.1;100.0;102620;;;;
2022/10/19 02:16:03;;;;;;;1.0;1.0;;;;;;;9.1;100.0;102620;;;;
2022/10/19 02:17:04;;;;;;;1.0;1.0;;;;;;;9.1;100.0;102620;;;;
2022/10/19 02:18:01;;;;;;;1.0;1.0;;;;;;;9.1;100.0;102620;;;;
2022/10/19 02:19:01;;;;;;;1.1;1.1;;;;;;;9.1;100.0;102620;;;;
2022/10/19 02:20:00;;;;;;;1.1;1.1;;;;;;;9.1;100.0;102620;;;;
2022/10/19 02:21:01;;;;;;;1.1;1.1;;;;;;;8.9;100.0;102610;;;;
2022/10/19 02:22:00;;;;;;;1.1;1.1;;;;;;;8.9;100.0;102610;;;;
2022/10/19 02:23:02;;;;;;;1.1;1.1;;;;;;;8.8;100.0;102610;;;;
2022/10/19 02:24:00;;;;;;;1.1;1.1;;;;;;;8.8;100.0;102610;;;;
2022/10/19 02:25:00;;;;;;;1.1;1.1;;;;;;;8.8;100.0;102610;;;;
2022/10/19 02:26:00;;;;;;;1.1;1.1;;;;;;;8.8;100.0;102610;;;;
2022/10/19 02:27:03;;;;;;;1.1;1.1;;;;;;;8.8;100.0;102600;;;;
2022/10/19 02:28:01;;;;;;;1.1;1.1;;;;;;;8.8;100.0;102600;;;;
2022/10/19 02:29:00;;;;;;;1.1;1.1;;;;;;;8.9;100.0;102610;;;;
2022/10/19 02:30:00;;;;;;;1.1;1.1;;;;;;;8.9;100.0;102610;;;;
2022/10/19 02:31:00;;;;;;;1.1;1.1;;;;;;;8.7;100.0;102600;;;;
2022/10/19 02:32:00;;;;;;;1.1;1.1;;;;;;;8.7;100.0;102600;;;;
2022/10/19 02:33:00;;;;;;;1.1;1.1;;;;;;;8.6;100.0;102600;;;;
2022/10/19 02:34:00;;;;;;;1.1;1.1;;;;;;;8.6;100.0;102600;;;;
2022/10/19 02:35:00;;;;;;;1.1;1.1;;;;;;;8.6;100.0;102590;;;;
2022/10/19 02:36:01;;;;;;;1.1;1.1;;;;;;;8.6;100.0;102590;;;;
2022/10/19 02:37:00;;;;;;;1.1;1.1;;;;;;;8.6;100.0;102590;;;;
2022/10/19 02:38:01;;;;;;;1.1;1.1;;;;;;;8.6;100.0;102590;;;;
2022/10/19 02:39:00;;;;;;;1.1;1.1;;;;;;;8.5;100.0;102590;;;;
2022/10/19 02:40:00;;;;;;;1.1;1.1;;;;;;;8.5;100.0;102590;;;;
2022/10/19 02:41:05;;;;;;;1.1;1.1;;;;;;;8.4;100.0;102590;;;;
2022/10/19 02:42:05;;;;;;;1.1;1.1;;;;;;;8.4;100.0;102590;;;;
2022/10/19 02:43:02;;;;;;;1.1;1.1;;;;;;;8.5;100.0;102580;;;;
2022/10/19 02:44:03;;;;;;;1.1;1.1;;;;;;;8.5;100.0;102580;;;;
2022/10/19 02:45:00;;;;;;;1.1;1.1;;;;;;;8.6;100.0;102590;;;;
2022/10/19 02:46:03;;;;;;;1.1;1.1;;;;;;;8.6;100.0;102590;;;;
2022/10/19 02:47:04;;;;;;;1.1;1.1;;;;;;;8.6;100.0;102580;;;;
2022/10/19 02:48:02;;;;;;;1.1;1.1;;;;;;;8.6;100.0;102580;;;;
2022/10/19 02:49:01;;;;;;;1.1;1.1;;;;;;;8.6;100.0;102580;;;;
2022/10/19 02:50:03;;;;;;;1.1;1.1;;;;;;;8.6;100.0;102580;;;;
2022/10/19 02:51:00;;;;;;;1.1;1.1;;;;;;;8.6;100.0;102580;;;;
2022/10/19 02:52:01;;;;;;;1.1;1.1;;;;;;;8.6;100.0;102580;;;;
2022/10/19 02:53:00;;;;;;;1.1;1.1;;;;;;;8.6;100.0;102580;;;;
2022/10/19 02:54:05;;;;;;;1.1;1.1;;;;;;;8.6;100.0;102580;;;;
2022/10/19 02:55:00;;;;;;;1.1;1.1;;;;;;;8.6;100.0;102580;;;;
2022/10/19 02:56:00;;;;;;;1.1;1.1;;;;;;;8.6;100.0;102580;;;;
2022/10/19 02:57:00;;;;;;;1.1;1.1;;;;;;;8.5;100.0;102580;;;;
2022/10/19 02:58:00;;;;;;;1.1;1.1;;;;;;;8.5;100.0;102580;;;;
2022/10/19 02:59:00;;;;;;;2.5;2.3;;;;;;;8.4;100.0;102580;;;;
2022/10/19 03:00:00;;;;;;;2.5;2.3;;;;;;;8.4;100.0;102580;;;;
2022/10/19 03:01:00;;;;;;;2.5;2.3;;;;;;;8.4;100.0;102570;;;;
2022/10/19 03:02:00;;;;;;;2.5;2.3;;;;;;;8.4;100.0;102570;;;;
2022/10/19 03:03:01;;;;;;;2.5;2.3;;;;;;;8.3;100.0;102570;;;;
2022/10/19 03:04:00;;;;;;;2.5;2.3;;;;;;;8.3;100.0;102570;;;;
2022/10/19 03:05:00;;;;;;;2.5;2.3;;;;;;;8.4;100.0;102580;;;;
2022/10/19 03:06:00;;;;;;;2.5;2.3;;;;;;;8.4;100.0;102580;;;;
2022/10/19 03:07:00;;;;;;;2.5;2.3;;;;;;;8.4;100.0;102580;;;;
2022/10/19 03:08:00;;;;;;;2.5;2.3;;;;;;;8.4;100.0;102580;;;;
2022/10/19 03:09:00;;;;;;;2.5;2.3;;;;;;;8.5;100.0;102580;;;;
2022/10/19 03:10:00;;;;;;;2.5;2.3;;;;;;;8.5;100.0;102580;;;;
2022/10/19 03:11:00;;;;;;;2.5;2.3;;;;;;;8.5;100.0;102580;;;;
2022/10/19 03:12:00;;;;;;;2.5;2.3;;;;;;;8.5;100.0;102580;;;;
2022/10/19 03:13:00;;;;;;;2.5;2.3;;;;;;;8.5;100.0;102590;;;;
2022/10/19 03:14:00;;;;;;;2.5;2.3;;;;;;;8.5;100.0;102590;;;;
2022/10/19 03:15:00;;;;;;;2.5;2.3;;;;;;;8.4;100.0;102580;;;;
2022/10/19 03:16:08;;;;;;;2.5;2.3;;;;;;;8.4;100.0;102580;;;;
2022/10/19 03:17:00;;;;;;;2.5;2.3;;;;;;;8.4;100.0;102580;;;;
2022/10/19 03:18:00;;;;;;;2.5;2.3;;;;;;;8.4;100.0;102580;;;;
2022/10/19 03:19:00;;;;;;;1.1;1.1;;;;;;;8.4;100.0;102580;;;;
2022/10/19 03:20:00;;;;;;;1.1;1.1;;;;;;;8.4;100.0;102580;;;;
2022/10/19 03:21:00;;;;;;;1.1;1.1;;;;;;;8.4;100.0;102580;;;;
2022/10/19 03:22:00;;;;;;;1.1;1.1;;;;;;;8.4;100.0;102580;;;;
2022/10/19 03:23:00;;;;;;;1.1;1.1;;;;;;;8.4;100.0;102580;;;;
2022/10/19 03:24:00;;;;;;;1.1;1.1;;;;;;;8.4;100.0;102580;;;;
2022/10/19 03:25:00;;;;;;;1.1;1.1;;;;;;;8.5;100.0;102590;;;;
2022/10/19 03:26:00;;;;;;;1.1;1.1;;;;;;;8.5;100.0;102590;;;;
2022/10/19 03:27:00;;;;;;;1.1;1.1;;;;;;;8.5;100.0;102590;;;;
2022/10/19 03:28:00;;;;;;;1.1;1.1;;;;;;;8.5;100.0;102590;;;;
2022/10/19 03:29:00;;;;;;;1.1;1.1;;;;;;;8.5;100.0;102580;;;;
2022/10/19 03:30:00;;;;;;;1.1;1.1;;;;;;;8.5;100.0;102580;;;;
2022/10/19 03:31:00;;;;;;;1.1;1.1;;;;;;;8.5;100.0;102580;;;;
2022/10/19 03:32:00;;;;;;;1.1;1.1;;;;;;;8.5;100.0;102580;;;;
2022/10/19 03:33:00;;;;;;;1.1;1.1;;;;;;;8.4;100.0;102580;;;;
2022/10/19 03:34:00;;;;;;;1.1;1.1;;;;;;;8.4;100.0;102580;;;;
2022/10/19 03:35:00;;;;;;;1.1;1.1;;;;;;;8.4;100.0;102570;;;;
2022/10/19 03:36:10;;;;;;;1.1;1.1;;;;;;;8.4;100.0;102570;;;;
2022/10/19 03:37:00;;;;;;;1.1;1.1;;;;;;;8.3;100.0;102570;;;;
2022/10/19 03:38:00;;;;;;;1.1;1.1;;;;;;;8.3;100.0;102570;;;;
2022/10/19 03:39:01;;;;;;;1.2;1.2;;;;;;;8.4;100.0;102570;;;;
2022/10/19 03:40:00;;;;;;;1.2;1.2;;;;;;;8.4;100.0;102570;;;;
2022/10/19 03:41:00;;;;;;;1.2;1.2;;;;;;;8.3;100.0;102570;;;;
2022/10/19 03:42:00;;;;;;;1.2;1.2;;;;;;;8.3;100.0;102570;;;;
2022/10/19 03:43:00;;;;;;;1.2;1.2;;;;;;;8.2;100.0;102570;;;;
2022/10/19 03:44:00;;;;;;;1.2;1.2;;;;;;;8.2;100.0;102570;;;;
2022/10/19 03:45:00;;;;;;;1.2;1.2;;;;;;;8.3;100.0;102570;;;;
2022/10/19 03:46:00;;;;;;;1.2;1.2;;;;;;;8.3;100.0;102570;;;;
2022/10/19 03:47:00;;;;;;;1.2;1.2;;;;;;;8.3;100.0;102570;;;;
2022/10/19 03:48:00;;;;;;;1.2;1.2;;;;;;;8.3;100.0;102570;;;;
2022/10/19 03:49:00;;;;;;;1.2;1.2;;;;;;;8.4;100.0;102570;;;;
2022/10/19 03:50:00;;;;;;;1.2;1.2;;;;;;;8.4;100.0;102570;;;;
2022/10/19 03:51:01;;;;;;;1.2;1.2;;;;;;;8.3;100.0;102570;;;;
2022/10/19 03:52:00;;;;;;;1.2;1.2;;;;;;;8.3;100.0;102570;;;;
2022/10/19 03:53:00;;;;;;;1.2;1.2;;;;;;;8.3;100.0;102570;;;;
2022/10/19 03:54:03;;;;;;;1.2;1.2;;;;;;;8.3;100.0;102570;;;;
2022/10/19 03:55:00;;;;;;;1.2;1.2;;;;;;;8.3;100.0;102570;;;;
2022/10/19 03:56:04;;;;;;;1.2;1.2;;;;;;;8.3;100.0;102570;;;;
2022/10/19 03:57:00;;;;;;;1.2;1.2;;;;;;;8.4;100.0;102570;;;;
2022/10/19 03:58:00;;;;;;;1.2;1.2;;;;;;;8.4;100.0;102570;;;;
2022/10/19 03:59:00;;;;;;;1.2;1.2;;;;;;;8.3;100.0;102570;;;;
2022/10/19 04:00:00;;;;;;;1.2;1.2;;;;;;;8.3;100.0;102570;;;;
2022/10/19 04:01:00;;;;;;;1.2;1.2;;;;;;;8.3;100.0;102570;;;;
2022/10/19 04:02:00;;;;;;;1.2;1.2;;;;;;;8.3;100.0;102570;;;;
2022/10/19 04:03:00;;;;;;;1.2;1.2;;;;;;;8.3;100.0;102570;;;;
2022/10/19 04:04:01;;;;;;;1.2;1.2;;;;;;;8.3;100.0;102570;;;;
2022/10/19 04:05:00;;;;;;;1.2;1.2;;;;;;;8.3;100.0;102570;;;;
2022/10/19 04:06:01;;;;;;;1.2;1.2;;;;;;;8.3;100.0;102570;;;;
2022/10/19 04:07:00;;;;;;;1.2;1.2;;;;;;;8.3;100.0;102570;;;;
2022/10/19 04:08:00;;;;;;;1.2;1.2;;;;;;;8.3;100.0;102570;;;;
2022/10/19 04:09:00;;;;;;;1.2;1.2;;;;;;;8.2;100.0;102580;;;;
2022/10/19 04:10:00;;;;;;;1.2;1.2;;;;;;;8.2;100.0;102580;;;;
2022/10/19 04:11:02;;;;;;;1.2;1.2;;;;;;;8.3;100.0;102580;;;;
2022/10/19 04:12:00;;;;;;;1.2;1.2;;;;;;;8.3;100.0;102580;;;;
2022/10/19 04:13:00;;;;;;;1.2;1.2;;;;;;;8.3;100.0;102590;;;;
2022/10/19 04:14:00;;;;;;;1.2;1.2;;;;;;;8.3;100.0;102590;;;;
2022/10/19 04:15:00;;;;;;;1.2;1.2;;;;;;;8.2;100.0;102590;;;;
2022/10/19 04:16:00;;;;;;;1.2;1.2;;;;;;;8.2;100.0;102590;;;;
2022/10/19 04:17:00;;;;;;;1.2;1.2;;;;;;;8.2;100.0;102590;;;;
2022/10/19 04:18:00;;;;;;;1.2;1.2;;;;;;;8.2;100.0;102590;;;;
2022/10/19 04:19:00;;;;;;;1.1;1.1;;;;;;;8.2;100.0;102590;;;;
2022/10/19 04:20:00;;;;;;;1.1;1.1;;;;;;;8.2;100.0;102590;;;;
2022/10/19 04:21:02;;;;;;;1.1;1.1;;;;;;;8.2;100.0;102580;;;;
2022/10/19 04:22:00;;;;;;;1.1;1.1;;;;;;;8.2;100.0;102580;;;;
2022/10/19 04:23:00;;;;;;;1.1;1.1;;;;;;;8.1;100.0;102580;;;;
2022/10/19 04:24:08;;;;;;;1.1;1.1;;;;;;;8.1;100.0;102580;;;;
2022/10/19 04:25:00;;;;;;;1.1;1.1;;;;;;;8.1;100.0;102580;;;;
2022/10/19 04:26:02;;;;;;;1.1;1.1;;;;;;;8.1;100.0;102580;;;;
2022/10/19 04:27:00;;;;;;;1.1;1.1;;;;;;;8.1;100.0;102590;;;;
2022/10/19 04:28:00;;;;;;;1.1;1.1;;;;;;;8.1;100.0;102590;;;;
2022/10/19 04:29:00;;;;;;;1.1;1.1;;;;;;;8.1;100.0;102590;;;;
2022/10/19 04:30:00;;;;;;;1.1;1.1;;;;;;;8.1;100.0;102590;;;;
2022/10/19 04:31:02;;;;;;;1.1;1.1;;;;;;;8.1;100.0;102580;;;;
2022/10/19 04:32:00;;;;;;;1.1;1.1;;;;;;;8.1;100.0;102580;;;;
2022/10/19 04:33:00;;;;;;;1.1;1.1;;;;;;;8.1;100.0;102580;;;;
2022/10/19 04:34:00;;;;;;;1.1;1.1;;;;;;;8.1;100.0;102580;;;;
2022/10/19 04:35:00;;;;;;;1.1;1.1;;;;;;;8.1;100.0;102580;;;;
2022/10/19 04:36:01;;;;;;;1.1;1.1;;;;;;;8.1;100.0;102580;;;;
2022/10/19 04:37:00;;;;;;;1.1;1.1;;;;;;;8.1;100.0;102580;;;;
2022/10/19 04:38:00;;;;;;;1.3;1.3;;;;;;;8.1;100.0;102580;;;;
2022/10/19 04:39:00;;;;;;;1.3;1.3;;;;;;;8.0;100.0;102580;;;;
2022/10/19 04:40:00;;;;;;;1.3;1.3;;;;;;;8.0;100.0;102580;;;;
2022/10/19 04:41:02;;;;;;;1.3;1.3;;;;;;;8.0;100.0;102580;;;;
2022/10/19 04:42:00;;;;;;;1.3;1.3;;;;;;;8.0;100.0;102580;;;;
2022/10/19 04:43:00;;;;;;;1.3;1.3;;;;;;;8.0;100.0;102590;;;;
2022/10/19 04:44:02;;;;;;;1.3;1.3;;;;;;;8.0;100.0;102590;;;;
2022/10/19 04:45:00;;;;;;;1.3;1.3;;;;;;;8.0;100.0;102580;;;;
2022/10/19 04:46:02;;;;;;;1.3;1.3;;;;;;;8.0;100.0;102580;;;;
2022/10/19 04:47:00;;;;;;;1.3;1.3;;;;;;;8.0;100.0;102580;;;;
2022/10/19 04:48:00;;;;;;;1.3;1.3;;;;;;;8.0;100.0;102580;;;;
2022/10/19 04:49:00;;;;;;;1.3;1.3;;;;;;;7.9;100.0;102580;;;;
2022/10/19 04:50:00;;;;;;;1.3;1.3;;;;;;;7.9;100.0;102580;;;;
2022/10/19 04:51:00;;;;;;;1.3;1.3;;;;;;;7.9;100.0;102580;;;;
2022/10/19 04:52:00;;;;;;;1.3;1.3;;;;;;;7.9;100.0;102580;;;;
2022/10/19 04:53:00;;;;;;;1.3;1.3;;;;;;;7.8;100.0;102580;;;;
2022/10/19 04:54:01;;;;;;;1.3;1.3;;;;;;;7.8;100.0;102580;;;;
2022/10/19 04:55:00;;;;;;;1.3;1.3;;;;;;;7.8;100.0;102580;;;;
2022/10/19 04:56:03;;;;;;;1.3;1.3;;;;;;;7.8;100.0;102580;;;;
2022/10/19 04:57:00;;;;;;;1.3;1.3;;;;;;;7.8;100.0;102570;;;;
2022/10/19 04:58:00;;;;;;;1.3;1.3;;;;;;;7.8;100.0;102570;;;;
2022/10/19 04:59:00;;;;;;;1.3;1.3;;;;;;;7.8;100.0;102570;;;;
2022/10/19 05:00:00;;;;;;;1.3;1.3;;;;;;;7.8;100.0;102570;;;;
2022/10/19 05:01:08;;;;;;;1.3;1.3;;;;;;;7.6;100.0;102580;;;;
2022/10/19 05:02:00;;;;;;;1.3;1.3;;;;;;;7.6;100.0;102580;;;;
2022/10/19 05:03:00;;;;;;;1.3;1.3;;;;;;;7.6;100.0;102580;;;;
2022/10/19 05:04:01;;;;;;;1.3;1.3;;;;;;;7.6;100.0;102580;;;;
2022/10/19 05:05:00;;;;;;;1.3;1.3;;;;;;;7.6;100.0;102580;;;;
2022/10/19 05:06:00;;;;;;;1.3;1.3;;;;;;;7.6;100.0;102580;;;;
2022/10/19 05:07:00;;;;;;;1.3;1.3;;;;;;;7.7;100.0;102580;;;;
2022/10/19 05:08:00;;;;;;;1.3;1.3;;;;;;;7.7;100.0;102580;;;;
2022/10/19 05:09:00;;;;;;;1.3;1.3;;;;;;;7.7;100.0;102570;;;;
2022/10/19 05:10:00;;;;;;;1.3;1.3;;;;;;;7.7;100.0;102570;;;;
2022/10/19 05:11:01;;;;;;;1.3;1.3;;;;;;;7.6;100.0;102570;;;;
2022/10/19 05:12:00;;;;;;;1.3;1.3;;;;;;;7.6;100.0;102570;;;;
2022/10/19 05:13:01;;;;;;;1.3;1.3;;;;;;;7.6;100.0;102570;;;;
2022/10/19 05:14:00;;;;;;;1.3;1.3;;;;;;;7.6;100.0;102570;;;;
2022/10/19 05:15:00;;;;;;;1.3;1.3;;;;;;;7.7;100.0;102570;;;;
2022/10/19 05:16:01;;;;;;;1.3;1.3;;;;;;;7.7;100.0;102570;;;;
2022/10/19 05:17:00;;;;;;;1.3;1.3;;;;;;;7.6;100.0;102570;;;;
2022/10/19 05:18:00;;;;;;;1.3;1.3;;;;;;;7.6;100.0;102570;;;;
2022/10/19 05:19:00;;;;;;;1.3;1.3;;;;;;;7.6;100.0;102570;;;;
2022/10/19 05:20:00;;;;;;;1.3;1.3;;;;;;;7.6;100.0;102570;;;;
2022/10/19 05:21:10;;;;;;;1.3;1.3;;;;;;;7.6;100.0;102570;;;;
2022/10/19 05:22:00;;;;;;;1.3;1.3;;;;;;;7.6;100.0;102570;;;;
2022/10/19 05:23:07;;;;;;;1.3;1.3;;;;;;;7.6;100.0;102570;;;;
2022/10/19 05:24:00;;;;;;;1.3;1.3;;;;;;;7.6;100.0;102570;;;;
2022/10/19 05:25:00;;;;;;;1.3;1.3;;;;;;;7.6;100.0;102570;;;;
2022/10/19 05:26:01;;;;;;;1.3;1.3;;;;;;;7.6;100.0;102570;;;;
2022/10/19 05:27:00;;;;;;;1.3;1.3;;;;;;;7.6;100.0;102560;;;;
2022/10/19 05:28:00;;;;;;;1.3;1.3;;;;;;;7.6;100.0;102560;;;;
2022/10/19 05:29:01;;;;;;;1.3;1.3;;;;;;;7.6;100.0;102570;;;;
2022/10/19 05:30:00;;;;;;;1.3;1.3;;;;;;;7.6;100.0;102570;;;;
2022/10/19 05:31:03;;;;;;;1.3;1.3;;;;;;;7.7;100.0;102570;;;;
2022/10/19 05:32:00;;;;;;;1.3;1.3;;;;;;;7.7;100.0;102570;;;;
2022/10/19 05:33:00;;;;;;;1.3;1.3;;;;;;;7.6;100.0;102570;;;;
2022/10/19 05:34:01;;;;;;;1.3;1.3;;;;;;;7.6;100.0;102570;;;;
2022/10/19 05:35:00;;;;;;;1.3;1.3;;;;;;;7.6;100.0;102560;;;;
2022/10/19 05:36:08;;;;;;;1.3;1.3;;;;;;;7.6;100.0;102560;;;;
2022/10/19 05:37:00;;;;;;;1.3;1.3;;;;;;;7.6;100.0;102560;;;;
2022/10/19 05:38:00;;;;;;;1.3;1.3;;;;;;;7.6;100.0;102560;;;;
2022/10/19 05:39:01;;;;;;;1.3;1.3;;;;;;;7.7;100.0;102560;;;;
2022/10/19 05:40:00;;;;;;;1.3;1.3;;;;;;;7.7;100.0;102560;;;;
2022/10/19 05:41:00;;;;;;;1.3;1.3;;;;;;;7.6;100.0;102570;;;;
2022/10/19 05:42:00;;;;;;;1.3;1.3;;;;;;;7.6;100.0;102570;;;;
2022/10/19 05:43:00;;;;;;;1.3;1.3;;;;;;;7.6;100.0;102560;;;;
2022/10/19 05:44:00;;;;;;;1.3;1.3;;;;;;;7.6;100.0;102560;;;;
2022/10/19 05:45:00;;;;;;;1.3;1.3;;;;;;;7.5;100.0;102560;;;;
2022/10/19 05:46:02;;;;;;;1.3;1.3;;;;;;;7.5;100.0;102560;;;;
2022/10/19 05:47:00;;;;;;;1.3;1.3;;;;;;;7.6;100.0;102550;;;;
2022/10/19 05:48:00;;;;;;;1.3;1.3;;;;;;;7.6;100.0;102550;;;;
2022/10/19 05:49:00;;;;;;;1.3;1.3;;;;;;;7.5;100.0;102550;;;;
2022/10/19 05:50:00;;;;;;;1.3;1.3;;;;;;;7.5;100.0;102550;;;;
2022/10/19 05:51:01;;;;;;;1.3;1.3;;;;;;;7.5;100.0;102550;;;;
2022/10/19 05:52:00;;;;;;;1.3;1.3;;;;;;;7.5;100.0;102550;;;;
2022/10/19 05:53:00;;;;;;;1.3;1.3;;;;;;;7.5;100.0;102550;;;;
2022/10/19 05:54:00;;;;;;;1.3;1.3;;;;;;;7.5;100.0;102550;;;;
2022/10/19 05:55:00;;;;;;;1.3;1.3;;;;;;;7.5;100.0;102550;;;;
2022/10/19 05:59:01;;;;;;;1.5;1.5;;;;;;;7.4;100.0;102540;;;;
2022/10/19 08:36:03;;;;;;;1.0;1.0;;;;;;;9.9;100.0;102530;;;;
2022/10/19 08:37:10;;;;;;;1.9;1.8;;;;;;;10.0;100.0;102530;;;;
2022/10/19 08:38:03;;;;;;;1.9;1.8;;;;;;;10.0;100.0;102530;;;;
2022/10/19 08:39:01;;;;;;;1.9;1.8;;;;;;;10.2;100.0;102540;;;;
2022/10/19 08:40:00;;;;;;;1.9;1.8;;;;;;;10.2;100.0;102540;;;;
2022/10/19 08:41:10;;;;;;;1.9;1.8;;;;;;;10.3;100.0;102530;;;;
2022/10/19 08:42:02;;;;;;;1.9;1.8;;;;;;;10.3;100.0;102530;;;;
2022/10/19 08:43:05;;;;;;;1.9;1.8;;;;;;;10.4;100.0;102530;;;;
2022/10/19 08:44:06;;;;;;;1.9;1.8;;;;;;;10.4;100.0;102530;;;;
2022/10/19 08:45:05;;;;;;;1.9;1.8;;;;;;;10.6;100.0;102530;;;;
2022/10/19 08:46:11;;;;;;;1.9;1.8;;;;;;;10.6;100.0;102530;;;;
2022/10/19 08:47:13;;;;;;;1.9;1.8;;;;;;;10.7;100.0;102530;;;;
2022/10/19 08:48:01;;;;;;;1.9;1.8;;;;;;;10.7;100.0;102530;;;;
2022/10/19 08:49:01;;;;;;;1.9;1.8;;;;;;;10.8;100.0;102520;;;;
2022/10/19 08:50:00;;;;;;;1.9;1.8;;;;;;;10.8;100.0;102520;;;;
2022/10/19 08:51:00;;;;;;;1.9;1.8;;;;;;;11.0;100.0;102510;;;;
2022/10/19 08:52:03;;;;;;;1.9;1.8;;;;;;;11.0;100.0;102510;;;;
2022/10/19 08:53:01;;;;;;;1.9;1.8;;;;;;;11.0;100.0;102510;;;;
2022/10/19 08:54:01;;;;;;;1.9;1.8;;;;;;;11.0;100.0;102510;;;;
2022/10/19 08:55:07;;;;;;;1.9;1.8;;;;;;;11.1;100.0;102510;;;;
2022/10/19 08:56:18;;;;;;;1.9;1.8;;;;;;;11.1;100.0;102510;;;;
2022/10/19 08:57:10;;;;;;;0.7;0.7;;;;;;;11.2;100.0;102500;;;;
2022/10/19 08:58:07;;;;;;;0.7;0.7;;;;;;;11.2;100.0;102500;;;;
2022/10/19 08:59:05;;;;;;;0.7;0.7;;;;;;;11.2;100.0;102490;;;;
2022/10/19 09:00:00;;;;;;;0.7;0.7;;;;;;;11.2;100.0;102490;;;;
2022/10/19 09:01:10;;;;;;;0.7;0.7;;;;;;;11.3;100.0;102500;;;;
2022/10/19 09:02:03;;;;;;;0.7;0.7;;;;;;;11.3;100.0;102500;;;;
2022/10/19 09:03:10;;;;;;;0.7;0.7;;;;;;;11.3;100.0;102490;;;;
2022/10/19 09:04:03;;;;;;;0.7;0.7;;;;;;;11.3;100.0;102490;;;;
2022/10/19 09:05:04;;;;;;;0.7;0.7;;;;;;;11.4;100.0;102490;;;;
2022/10/19 09:06:08;;;;;;;0.7;0.7;;;;;;;11.4;100.0;102490;;;;
2022/10/19 09:07:10;;;;;;;0.7;0.7;;;;;;;11.3;100.0;102490;;;;
2022/10/19 09:08:00;;;;;;;0.7;0.7;;;;;;;11.3;100.0;102490;;;;
2022/10/19 09:09:00;;;;;;;0.7;0.7;;;;;;;11.3;100.0;102480;;;;
2022/10/19 09:10:03;;;;;;;0.7;0.7;;;;;;;11.3;100.0;102480;;;;
2022/10/19 09:11:00;;;;;;;0.7;0.7;;;;;;;11.4;100.0;102490;;;;
2022/10/19 09:12:02;;;;;;;0.7;0.7;;;;;;;11.4;100.0;102490;;;;
2022/10/19 09:13:07;;;;;;;0.7;0.7;;;;;;;11.4;100.0;102490;;;;
2022/10/19 09:14:10;;;;;;;0.7;0.7;;;;;;;11.4;100.0;102490;;;;
2022/10/19 09:15:02;;;;;;;0.7;0.7;;;;;;;11.4;100.0;102490;;;;
2022/10/19 09:16:00;;;;;;;0.7;0.7;;;;;;;11.4;100.0;102490;;;;
2022/10/19 09:17:02;;;;;;;0.7;0.7;;;;;;;11.7;100.0;102500;;;;
2022/10/19 09:18:01;;;;;;;0.7;0.7;;;;;;;11.7;100.0;102500;;;;
2022/10/19 09:19:00;;;;;;;0.7;0.7;;;;;;;11.6;100.0;102490;;;;
2022/10/19 09:20:09;;;;;;;0.7;0.7;;;;;;;11.6;100.0;102490;;;;
2022/10/19 09:21:03;;;;;;;0.7;0.7;;;;;;;11.5;100.0;102480;;;;
2022/10/19 09:22:01;;;;;;;0.7;0.7;;;;;;;11.5;100.0;102480;;;;
2022/10/19 09:23:00;;;;;;;0.7;0.7;;;;;;;11.6;100.0;102480;;;;
2022/10/19 09:24:05;;;;;;;0.7;0.7;;;;;;;11.6;100.0;102480;;;;
2022/10/19 09:25:02;;;;;;;0.7;0.7;;;;;;;11.6;100.0;102480;;;;
2022/10/19 09:26:00;;;;;;;0.7;0.7;;;;;;;11.6;100.0;102480;;;;
2022/10/19 09:27:00;;;;;;;0.7;0.7;;;;;;;11.6;100.0;102480;;;;
2022/10/19 09:28:10;;;;;;;0.7;0.7;;;;;;;11.6;100.0;102480;;;;
2022/10/19 09:29:04;;;;;;;0.7;0.7;;;;;;;11.6;100.0;102470;;;;
2022/10/19 09:30:02;;;;;;;0.7;0.7;;;;;;;11.6;100.0;102470;;;;
2022/10/19 09:31:01;;;;;;;0.7;0.7;;;;;;;11.7;100.0;102470;;;;
2022/10/19 09:32:02;;;;;;;0.7;0.7;;;;;;;11.7;100.0;102470;;;;
2022/10/19 09:33:00;;;;;;;0.7;0.7;;;;;;;11.7;100.0;102470;;;;
2022/10/19 09:34:04;;;;;;;0.7;0.7;;;;;;;11.7;100.0;102470;;;;
2022/10/19 09:35:01;;;;;;;0.7;0.7;;;;;;;11.9;100.0;102470;;;;
2022/10/19 09:36:01;;;;;;;0.7;0.7;;;;;;;11.9;100.0;102470;;;;
2022/10/19 09:37:00;;;;;;;0.7;0.7;;;;;;;11.8;100.0;102460;;;;
2022/10/19 09:38:00;;;;;;;0.7;0.7;;;;;;;11.8;100.0;102460;;;;
2022/10/19 09:39:00;;;;;;;0.7;0.7;;;;;;;11.8;100.0;102470;;;;
2022/10/19 09:40:00;;;;;;;0.7;0.7;;;;;;;11.8;100.0;102470;;;;
2022/10/19 09:41:10;;;;;;;0.7;0.7;;;;;;;11.9;100.0;102460;;;;
2022/10/19 09:42:10;;;;;;;0.7;0.7;;;;;;;11.9;100.0;102460;;;;
2022/10/19 09:43:12;;;;;;;0.7;0.7;;;;;;;12.0;100.0;102460;;;;
2022/10/19 09:44:00;;;;;;;0.7;0.7;;;;;;;12.0;100.0;102460;;;;
2022/10/19 09:45:01;;;;;;;0.7;0.7;;;;;;;11.9;100.0;102460;;;;
2022/10/19 09:46:15;;;;;;;0.7;0.7;;;;;;;11.9;100.0;102460;;;;
2022/10/19 09:47:01;;;;;;;0.7;0.7;;;;;;;12.0;100.0;102470;;;;
2022/10/19 09:48:12;;;;;;;0.7;0.7;;;;;;;12.0;100.0;102470;;;;
2022/10/19 09:49:02;;;;;;;0.7;0.7;;;;;;;12.1;100.0;102470;;;;
2022/10/19 09:50:10;;;;;;;0.7;0.7;;;;;;;12.1;100.0;102470;;;;
2022/10/19 09:51:01;;;;;;;0.7;0.7;;;;;;;12.1;100.0;102470;;;;
2022/10/19 09:52:00;;;;;;;0.7;0.7;;;;;;;12.1;100.0;102470;;;;
2022/10/19 09:53:03;;;;;;;0.7;0.7;;;;;;;12.1;100.0;102470;;;;
2022/10/19 09:54:00;;;;;;;0.7;0.7;;;;;;;12.1;100.0;102470;;;;
2022/10/19 09:55:02;;;;;;;0.7;0.7;;;;;;;12.2;100.0;102470;;;;
2022/10/19 09:56:05;;;;;;;0.7;0.7;;;;;;;12.2;100.0;102470;;;;
2022/10/19 09:57:00;;;;;;;0.7;0.7;;;;;;;12.4;100.0;102470;;;;
2022/10/19 09:58:02;;;;;;;0.7;0.7;;;;;;;12.4;100.0;102470;;;;
2022/10/19 09:59:00;;;;;;;0.7;0.7;;;;;;;12.3;100.0;102470;;;;
2022/10/19 10:00:00;;;;;;;0.7;0.7;;;;;;;12.3;100.0;102470;;;;
2022/10/19 10:01:01;;;;;;;0.7;0.7;;;;;;;12.3;100.0;102470;;;;
2022/10/19 10:02:10;;;;;;;0.7;0.7;;;;;;;12.3;100.0;102470;;;;
2022/10/19 10:03:00;;;;;;;0.7;0.7;;;;;;;12.4;100.0;102470;;;;
2022/10/19 10:04:04;;;;;;;0.7;0.7;;;;;;;12.4;100.0;102470;;;;
2022/10/19 10:05:10;;;;;;;0.7;0.7;;;;;;;12.5;100.0;102470;;;;
2022/10/19 10:06:03;;;;;;;0.7;0.7;;;;;;;12.5;100.0;102470;;;;
2022/10/19 10:07:00;;;;;;;0.7;0.7;;;;;;;12.5;100.0;102470;;;;
2022/10/19 10:08:00;;;;;;;0.7;0.7;;;;;;;12.5;100.0;102470;;;;
2022/10/19 10:09:00;;;;;;;0.7;0.7;;;;;;;12.4;100.0;102460;;;;
2022/10/19 10:10:00;;;;;;;0.7;0.7;;;;;;;12.4;100.0;102460;;;;